sensor_id;sensor_type;location;lat;lon;timestamp;pressure;altitude;pressure_sealevel;temperature;humidity
76229;BME280;65021;53.174;18.160;2023-02-14T00:00:41;102986.33;;;1.97;82.09
76229;BME280;65021;53.174;18.160;2023-02-14T00:03:24;102990.48;;;1.99;82.18
76229;BME280;65021;53.174;18.160;2023-02-14T00:05:50;102985.95;;;2.01;82.04
76229;BME280;65021;53.174;18.160;2023-02-14T00:08:17;102983.05;;;2.03;82.06
76229;BME280;65021;53.174;18.160;2023-02-14T00:10:44;102984.86;;;2.03;82.05
76229;BME280;65021;53.174;18.160;2023-02-14T00:13:10;102988.49;;;2.05;82.11
76229;BME280;65021;53.174;18.160;2023-02-14T00:15:37;102978.29;;;2.07;82.20
76229;BME280;65021;53.174;18.160;2023-02-14T00:18:03;102980.52;;;2.09;82.06
76229;BME280;65021;53.174;18.160;2023-02-14T00:20:34;102987.04;;;2.11;82.10
76229;BME280;65021;53.174;18.160;2023-02-14T00:23:02;102991.38;;;2.14;82.03
76229;BME280;65021;53.174;18.160;2023-02-14T00:25:29;102987.30;;;2.17;82.06
76229;BME280;65021;53.174;18.160;2023-02-14T00:27:55;102986.30;;;2.19;82.54
76229;BME280;65021;53.174;18.160;2023-02-14T00:30:22;102978.52;;;2.22;82.54
76229;BME280;65021;53.174;18.160;2023-02-14T00:32:49;102983.34;;;2.26;82.41
76229;BME280;65021;53.174;18.160;2023-02-14T00:35:15;102987.15;;;2.28;82.33
76229;BME280;65021;53.174;18.160;2023-02-14T00:37:44;102984.58;;;2.30;82.40
76229;BME280;65021;53.174;18.160;2023-02-14T00:40:11;102987.09;;;2.33;82.37
76229;BME280;65021;53.174;18.160;2023-02-14T00:42:38;102985.20;;;2.35;83.16
76229;BME280;65021;53.174;18.160;2023-02-14T00:45:05;102985.55;;;2.36;82.85
76229;BME280;65021;53.174;18.160;2023-02-14T00:47:32;102982.65;;;2.37;82.66
76229;BME280;65021;53.174;18.160;2023-02-14T00:49:58;102986.94;;;2.38;82.94
76229;BME280;65021;53.174;18.160;2023-02-14T00:52:29;102992.02;;;2.39;82.69
76229;BME280;65021;53.174;18.160;2023-02-14T00:54:55;102996.34;;;2.40;83.49
76229;BME280;65021;53.174;18.160;2023-02-14T00:57:22;102994.44;;;2.40;83.10
76229;BME280;65021;53.174;18.160;2023-02-14T00:59:48;102993.39;;;2.42;83.09
76229;BME280;65021;53.174;18.160;2023-02-14T01:02:18;102993.03;;;2.46;82.86
76229;BME280;65021;53.174;18.160;2023-02-14T01:04:44;102992.96;;;2.48;82.65
76229;BME280;65021;53.174;18.160;2023-02-14T01:07:11;102997.98;;;2.51;82.64
76229;BME280;65021;53.174;18.160;2023-02-14T01:09:37;102994.60;;;2.53;82.66
76229;BME280;65021;53.174;18.160;2023-02-14T01:12:04;102992.36;;;2.53;82.89
76229;BME280;65021;53.174;18.160;2023-02-14T01:14:31;102985.55;;;2.53;82.76
76229;BME280;65021;53.174;18.160;2023-02-14T01:16:57;102984.37;;;2.54;82.80
76229;BME280;65021;53.174;18.160;2023-02-14T01:19:24;102985.70;;;2.54;82.70
76229;BME280;65021;53.174;18.160;2023-02-14T01:21:50;102983.17;;;2.53;82.70
76229;BME280;65021;53.174;18.160;2023-02-14T01:24:17;102986.62;;;2.54;82.98
76229;BME280;65021;53.174;18.160;2023-02-14T01:26:43;102987.47;;;2.53;83.31
76229;BME280;65021;53.174;18.160;2023-02-14T01:29:10;102988.65;;;2.55;83.09
76229;BME280;65021;53.174;18.160;2023-02-14T01:31:37;102986.02;;;2.56;83.54
76229;BME280;65021;53.174;18.160;2023-02-14T01:34:03;102977.04;;;2.54;83.83
76229;BME280;65021;53.174;18.160;2023-02-14T01:36:37;102980.55;;;2.54;83.45
76229;BME280;65021;53.174;18.160;2023-02-14T01:39:13;102979.77;;;2.56;83.13
76229;BME280;65021;53.174;18.160;2023-02-14T01:41:42;102988.60;;;2.60;83.07
76229;BME280;65021;53.174;18.160;2023-02-14T01:46:43;102985.66;;;2.64;82.92
76229;BME280;65021;53.174;18.160;2023-02-14T01:49:20;102985.32;;;2.66;83.06
76229;BME280;65021;53.174;18.160;2023-02-14T01:54:24;102987.03;;;2.67;83.27
76229;BME280;65021;53.174;18.160;2023-02-14T01:56:56;102991.08;;;2.69;83.25
76229;BME280;65021;53.174;18.160;2023-02-14T01:59:27;102991.70;;;2.70;83.31
76229;BME280;65021;53.174;18.160;2023-02-14T02:01:56;102993.38;;;2.72;83.27
76229;BME280;65021;53.174;18.160;2023-02-14T02:04:25;102991.92;;;2.72;83.69
76229;BME280;65021;53.174;18.160;2023-02-14T02:07:04;102995.60;;;2.71;83.47
76229;BME280;65021;53.174;18.160;2023-02-14T02:09:35;102994.67;;;2.71;83.71
76229;BME280;65021;53.174;18.160;2023-02-14T02:12:04;102993.52;;;2.72;83.83
76229;BME280;65021;53.174;18.160;2023-02-14T02:14:31;103003.38;;;2.72;84.57
76229;BME280;65021;53.174;18.160;2023-02-14T02:19:47;102998.09;;;2.74;84.19
76229;BME280;65021;53.174;18.160;2023-02-14T02:30:41;102996.05;;;2.78;84.65
76229;BME280;65021;53.174;18.160;2023-02-14T02:39:20;102992.08;;;2.82;83.75
76229;BME280;65021;53.174;18.160;2023-02-14T02:48:03;102994.88;;;2.85;83.76
76229;BME280;65021;53.174;18.160;2023-02-14T02:50:36;102996.28;;;2.85;83.78
76229;BME280;65021;53.174;18.160;2023-02-14T02:53:44;103003.27;;;2.87;83.93
76229;BME280;65021;53.174;18.160;2023-02-14T02:56:27;103009.69;;;2.89;83.86
76229;BME280;65021;53.174;18.160;2023-02-14T02:59:24;103011.13;;;2.89;84.43
76229;BME280;65021;53.174;18.160;2023-02-14T03:04:32;103007.77;;;2.92;84.14
76229;BME280;65021;53.174;18.160;2023-02-14T03:07:37;103008.54;;;2.93;84.07
76229;BME280;65021;53.174;18.160;2023-02-14T03:10:26;103010.73;;;2.95;84.33
76229;BME280;65021;53.174;18.160;2023-02-14T03:13:21;103010.27;;;2.94;85.16
76229;BME280;65021;53.174;18.160;2023-02-14T03:16:01;103011.90;;;2.95;85.06
76229;BME280;65021;53.174;18.160;2023-02-14T03:26:50;103019.98;;;2.94;85.70
76229;BME280;65021;53.174;18.160;2023-02-14T03:29:30;103024.53;;;2.95;85.38
76229;BME280;65021;53.174;18.160;2023-02-14T03:32:07;103022.67;;;2.95;85.54
76229;BME280;65021;53.174;18.160;2023-02-14T03:34:44;103021.37;;;2.91;86.31
76229;BME280;65021;53.174;18.160;2023-02-14T03:40:04;103020.19;;;2.90;85.95
76229;BME280;65021;53.174;18.160;2023-02-14T03:42:39;103021.54;;;2.88;85.88
76229;BME280;65021;53.174;18.160;2023-02-14T03:45:14;103024.89;;;2.87;85.94
76229;BME280;65021;53.174;18.160;2023-02-14T03:47:42;103030.80;;;2.85;85.97
76229;BME280;65021;53.174;18.160;2023-02-14T03:50:15;103028.95;;;2.85;85.99
76229;BME280;65021;53.174;18.160;2023-02-14T03:52:43;103032.73;;;2.89;85.54
76229;BME280;65021;53.174;18.160;2023-02-14T03:55:12;103026.67;;;2.92;86.42
76229;BME280;65021;53.174;18.160;2023-02-14T03:58:38;103025.42;;;2.93;86.19
76229;BME280;65021;53.174;18.160;2023-02-14T04:01:03;103024.48;;;2.96;85.92
76229;BME280;65021;53.174;18.160;2023-02-14T04:03:31;103020.83;;;2.99;85.74
76229;BME280;65021;53.174;18.160;2023-02-14T04:05:59;103021.55;;;2.97;86.21
76229;BME280;65021;53.174;18.160;2023-02-14T04:08:28;103031.66;;;2.95;86.24
76229;BME280;65021;53.174;18.160;2023-02-14T04:10:57;103028.72;;;2.95;85.73
76229;BME280;65021;53.174;18.160;2023-02-14T04:13:26;103029.45;;;2.97;85.63
76229;BME280;65021;53.174;18.160;2023-02-14T04:15:52;103029.45;;;2.99;85.87
76229;BME280;65021;53.174;18.160;2023-02-14T04:18:19;103017.91;;;2.97;86.29
76229;BME280;65021;53.174;18.160;2023-02-14T04:21:05;103020.09;;;2.93;86.45
76229;BME280;65021;53.174;18.160;2023-02-14T04:23:31;103014.17;;;2.94;86.20
76229;BME280;65021;53.174;18.160;2023-02-14T04:25:58;103016.80;;;2.95;86.17
76229;BME280;65021;53.174;18.160;2023-02-14T04:28:24;103017.30;;;2.98;85.78
76229;BME280;65021;53.174;18.160;2023-02-14T04:30:51;103012.70;;;3.02;85.65
76229;BME280;65021;53.174;18.160;2023-02-14T04:33:17;103012.26;;;3.06;85.56
76229;BME280;65021;53.174;18.160;2023-02-14T04:35:44;103020.77;;;3.05;86.25
76229;BME280;65021;53.174;18.160;2023-02-14T04:38:10;103028.34;;;3.05;85.91
76229;BME280;65021;53.174;18.160;2023-02-14T04:40:37;103028.08;;;3.06;85.68
76229;BME280;65021;53.174;18.160;2023-02-14T04:43:03;103021.79;;;3.04;85.85
76229;BME280;65021;53.174;18.160;2023-02-14T04:45:30;103020.56;;;3.04;85.87
76229;BME280;65021;53.174;18.160;2023-02-14T04:47:57;103021.56;;;3.05;85.71
76229;BME280;65021;53.174;18.160;2023-02-14T04:50:24;103030.21;;;3.04;85.66
76229;BME280;65021;53.174;18.160;2023-02-14T04:52:52;103029.64;;;3.05;85.68
76229;BME280;65021;53.174;18.160;2023-02-14T04:55:18;103034.23;;;3.05;85.62
76229;BME280;65021;53.174;18.160;2023-02-14T04:57:45;103025.36;;;3.03;85.87
76229;BME280;65021;53.174;18.160;2023-02-14T05:00:12;103025.98;;;3.03;85.96
76229;BME280;65021;53.174;18.160;2023-02-14T05:02:39;103029.83;;;3.01;85.79
76229;BME280;65021;53.174;18.160;2023-02-14T05:05:06;103029.45;;;3.01;85.54
76229;BME280;65021;53.174;18.160;2023-02-14T05:07:32;103029.13;;;3.02;85.55
76229;BME280;65021;53.174;18.160;2023-02-14T05:09:59;103025.40;;;3.03;85.46
76229;BME280;65021;53.174;18.160;2023-02-14T05:12:25;103024.59;;;3.04;85.35
76229;BME280;65021;53.174;18.160;2023-02-14T05:14:52;103022.02;;;3.02;85.95
76229;BME280;65021;53.174;18.160;2023-02-14T05:17:18;103025.43;;;3.01;85.89
76229;BME280;65021;53.174;18.160;2023-02-14T05:19:45;103021.06;;;3.00;85.62
76229;BME280;65021;53.174;18.160;2023-02-14T05:22:11;103027.40;;;3.01;85.66
76229;BME280;65021;53.174;18.160;2023-02-14T05:24:38;103018.05;;;3.01;85.71
76229;BME280;65021;53.174;18.160;2023-02-14T05:27:05;103010.98;;;3.01;85.70
76229;BME280;65021;53.174;18.160;2023-02-14T05:29:32;103014.95;;;2.99;85.83
76229;BME280;65021;53.174;18.160;2023-02-14T05:31:59;103031.97;;;2.99;85.63
76229;BME280;65021;53.174;18.160;2023-02-14T05:34:26;103031.27;;;3.01;85.52
76229;BME280;65021;53.174;18.160;2023-02-14T05:36:52;103026.46;;;3.04;85.45
76229;BME280;65021;53.174;18.160;2023-02-14T05:39:20;103020.25;;;3.05;85.40
76229;BME280;65021;53.174;18.160;2023-02-14T05:41:46;103025.90;;;3.05;85.35
76229;BME280;65021;53.174;18.160;2023-02-14T05:44:13;103034.59;;;3.07;85.40
76229;BME280;65021;53.174;18.160;2023-02-14T05:46:40;103032.73;;;3.09;85.41
76229;BME280;65021;53.174;18.160;2023-02-14T05:49:06;103033.13;;;3.07;85.40
76229;BME280;65021;53.174;18.160;2023-02-14T05:51:33;103034.89;;;3.03;86.38
76229;BME280;65021;53.174;18.160;2023-02-14T05:53:59;103041.44;;;3.00;86.26
76229;BME280;65021;53.174;18.160;2023-02-14T05:56:26;103045.96;;;2.99;86.06
76229;BME280;65021;53.174;18.160;2023-02-14T05:58:53;103038.42;;;2.99;85.89
76229;BME280;65021;53.174;18.160;2023-02-14T06:01:20;103041.95;;;2.98;86.16
76229;BME280;65021;53.174;18.160;2023-02-14T06:03:47;103044.87;;;2.97;86.40
76229;BME280;65021;53.174;18.160;2023-02-14T06:06:13;103047.95;;;2.95;86.56
76229;BME280;65021;53.174;18.160;2023-02-14T06:08:40;103046.94;;;2.94;86.44
76229;BME280;65021;53.174;18.160;2023-02-14T06:11:06;103043.09;;;2.94;86.19
76229;BME280;65021;53.174;18.160;2023-02-14T06:13:33;103045.61;;;2.95;86.01
76229;BME280;65021;53.174;18.160;2023-02-14T06:16:02;103050.95;;;2.96;85.93
76229;BME280;65021;53.174;18.160;2023-02-14T06:18:29;103052.60;;;2.98;86.17
76229;BME280;65021;53.174;18.160;2023-02-14T06:20:55;103058.61;;;2.97;86.25
76229;BME280;65021;53.174;18.160;2023-02-14T06:23:22;103063.40;;;2.96;86.24
76229;BME280;65021;53.174;18.160;2023-02-14T06:25:49;103063.87;;;2.97;86.30
76229;BME280;65021;53.174;18.160;2023-02-14T06:28:15;103059.67;;;2.99;86.18
76229;BME280;65021;53.174;18.160;2023-02-14T06:30:42;103063.05;;;3.00;86.13
76229;BME280;65021;53.174;18.160;2023-02-14T06:33:08;103062.30;;;3.02;86.02
76229;BME280;65021;53.174;18.160;2023-02-14T06:35:35;103055.05;;;3.03;86.06
76229;BME280;65021;53.174;18.160;2023-02-14T06:38:01;103058.92;;;3.05;86.07
76229;BME280;65021;53.174;18.160;2023-02-14T06:40:28;103062.79;;;3.07;85.97
76229;BME280;65021;53.174;18.160;2023-02-14T06:42:54;103064.58;;;3.09;85.95
76229;BME280;65021;53.174;18.160;2023-02-14T06:45:21;103060.06;;;3.12;85.88
76229;BME280;65021;53.174;18.160;2023-02-14T06:47:47;103059.74;;;3.14;86.04
76229;BME280;65021;53.174;18.160;2023-02-14T06:50:17;103066.17;;;3.13;86.44
76229;BME280;65021;53.174;18.160;2023-02-14T06:52:43;103064.20;;;3.17;86.13
76229;BME280;65021;53.174;18.160;2023-02-14T06:55:10;103068.02;;;3.19;86.02
76229;BME280;65021;53.174;18.160;2023-02-14T06:57:38;103070.24;;;3.21;86.06
76229;BME280;65021;53.174;18.160;2023-02-14T07:00:06;103077.45;;;3.24;85.94
76229;BME280;65021;53.174;18.160;2023-02-14T07:02:33;103077.34;;;3.25;86.00
76229;BME280;65021;53.174;18.160;2023-02-14T07:04:59;103073.64;;;3.28;86.07
76229;BME280;65021;53.174;18.160;2023-02-14T07:07:26;103070.86;;;3.28;86.52
76229;BME280;65021;53.174;18.160;2023-02-14T07:09:52;103078.82;;;3.31;86.40
76229;BME280;65021;53.174;18.160;2023-02-14T07:12:19;103085.77;;;3.37;86.19
76229;BME280;65021;53.174;18.160;2023-02-14T07:14:45;103083.59;;;3.41;86.19
76229;BME280;65021;53.174;18.160;2023-02-14T07:17:12;103080.44;;;3.39;86.48
76229;BME280;65021;53.174;18.160;2023-02-14T07:19:38;103082.49;;;3.41;86.39
76229;BME280;65021;53.174;18.160;2023-02-14T07:22:05;103082.30;;;3.47;86.15
76229;BME280;65021;53.174;18.160;2023-02-14T07:24:31;103085.09;;;3.50;86.11
76229;BME280;65021;53.174;18.160;2023-02-14T07:26:58;103088.52;;;3.53;86.05
76229;BME280;65021;53.174;18.160;2023-02-14T07:29:24;103084.17;;;3.56;86.00
76229;BME280;65021;53.174;18.160;2023-02-14T07:31:51;103088.16;;;3.58;85.89
76229;BME280;65021;53.174;18.160;2023-02-14T07:34:18;103095.69;;;3.62;85.86
76229;BME280;65021;53.174;18.160;2023-02-14T07:36:44;103091.50;;;3.66;85.68
76229;BME280;65021;53.174;18.160;2023-02-14T07:39:11;103094.01;;;3.70;85.77
76229;BME280;65021;53.174;18.160;2023-02-14T07:41:37;103094.88;;;3.72;85.72
76229;BME280;65021;53.174;18.160;2023-02-14T07:44:04;103092.79;;;3.73;85.55
76229;BME280;65021;53.174;18.160;2023-02-14T07:46:30;103093.80;;;3.72;85.54
76229;BME280;65021;53.174;18.160;2023-02-14T07:48:57;103092.79;;;3.73;85.63
76229;BME280;65021;53.174;18.160;2023-02-14T07:51:24;103096.35;;;3.74;85.50
76229;BME280;65021;53.174;18.160;2023-02-14T07:53:50;103105.02;;;3.79;85.45
76229;BME280;65021;53.174;18.160;2023-02-14T07:56:17;103109.95;;;3.83;85.35
76229;BME280;65021;53.174;18.160;2023-02-14T07:58:43;103111.84;;;3.90;85.40
76229;BME280;65021;53.174;18.160;2023-02-14T08:01:10;103113.48;;;3.98;85.39
76229;BME280;65021;53.174;18.160;2023-02-14T08:03:37;103107.12;;;3.96;84.99
76229;BME280;65021;53.174;18.160;2023-02-14T08:06:03;103103.92;;;3.96;85.01
76229;BME280;65021;53.174;18.160;2023-02-14T08:08:30;103102.15;;;4.00;84.80
76229;BME280;65021;53.174;18.160;2023-02-14T08:10:58;103104.10;;;4.00;84.80
76229;BME280;65021;53.174;18.160;2023-02-14T08:13:24;103111.84;;;4.04;84.62
76229;BME280;65021;53.174;18.160;2023-02-14T08:15:51;103108.80;;;4.09;84.74
76229;BME280;65021;53.174;18.160;2023-02-14T08:18:40;103106.66;;;4.16;84.72
76229;BME280;65021;53.174;18.160;2023-02-14T08:21:09;103114.47;;;4.18;84.48
76229;BME280;65021;53.174;18.160;2023-02-14T08:23:36;103117.25;;;4.22;84.42
76229;BME280;65021;53.174;18.160;2023-02-14T08:26:03;103117.30;;;4.27;84.46
76229;BME280;65021;53.174;18.160;2023-02-14T08:28:30;103117.04;;;4.35;84.51
76229;BME280;65021;53.174;18.160;2023-02-14T08:30:58;103122.05;;;4.38;83.96
76229;BME280;65021;53.174;18.160;2023-02-14T08:33:25;103123.46;;;4.39;83.98
76229;BME280;65021;53.174;18.160;2023-02-14T08:35:51;103127.89;;;4.46;84.27
76229;BME280;65021;53.174;18.160;2023-02-14T08:38:18;103127.02;;;4.53;84.10
76229;BME280;65021;53.174;18.160;2023-02-14T08:40:45;103129.55;;;4.51;83.40
76229;BME280;65021;53.174;18.160;2023-02-14T08:43:12;103136.45;;;4.52;83.37
76229;BME280;65021;53.174;18.160;2023-02-14T08:45:39;103132.70;;;4.57;83.65
76229;BME280;65021;53.174;18.160;2023-02-14T08:48:09;103120.81;;;4.66;83.78
76229;BME280;65021;53.174;18.160;2023-02-14T08:50:37;103125.98;;;4.75;83.64
76229;BME280;65021;53.174;18.160;2023-02-14T08:53:08;103124.77;;;4.79;83.56
76229;BME280;65021;53.174;18.160;2023-02-14T08:55:35;103125.90;;;4.86;83.72
76229;BME280;65021;53.174;18.160;2023-02-14T08:58:03;103128.56;;;4.95;83.66
76229;BME280;65021;53.174;18.160;2023-02-14T09:00:31;103136.15;;;5.05;83.61
76229;BME280;65021;53.174;18.160;2023-02-14T09:02:58;103139.23;;;5.11;82.54
76229;BME280;65021;53.174;18.160;2023-02-14T09:05:25;103133.10;;;5.15;82.67
76229;BME280;65021;53.174;18.160;2023-02-14T09:07:52;103133.20;;;5.21;82.99
76229;BME280;65021;53.174;18.160;2023-02-14T09:10:22;103132.68;;;5.25;82.81
76229;BME280;65021;53.174;18.160;2023-02-14T09:12:49;103135.14;;;5.33;83.07
76229;BME280;65021;53.174;18.160;2023-02-14T09:15:16;103134.95;;;5.44;82.82
76229;BME280;65021;53.174;18.160;2023-02-14T09:17:43;103138.58;;;5.45;82.13
76229;BME280;65021;53.174;18.160;2023-02-14T09:20:11;103141.90;;;5.52;82.55
76229;BME280;65021;53.174;18.160;2023-02-14T09:22:38;103144.73;;;5.56;82.42
76229;BME280;65021;53.174;18.160;2023-02-14T09:25:05;103151.70;;;5.55;82.33
76229;BME280;65021;53.174;18.160;2023-02-14T09:27:31;103156.15;;;5.52;81.93
76229;BME280;65021;53.174;18.160;2023-02-14T09:29:58;103153.04;;;5.54;82.25
76229;BME280;65021;53.174;18.160;2023-02-14T09:32:25;103153.51;;;5.57;81.63
76229;BME280;65021;53.174;18.160;2023-02-14T09:34:52;103154.67;;;5.52;81.12
76229;BME280;65021;53.174;18.160;2023-02-14T09:37:19;103158.52;;;5.51;81.28
76229;BME280;65021;53.174;18.160;2023-02-14T09:39:45;103160.94;;;5.49;81.52
76229;BME280;65021;53.174;18.160;2023-02-14T09:45:15;103164.02;;;5.53;81.75
76229;BME280;65021;53.174;18.160;2023-02-14T09:48:23;103154.77;;;5.48;80.52
76229;BME280;65021;53.174;18.160;2023-02-14T09:50:54;103162.05;;;5.43;80.66
76229;BME280;65021;53.174;18.160;2023-02-14T09:53:31;103169.42;;;5.47;80.81
76229;BME280;65021;53.174;18.160;2023-02-14T09:56:10;103162.98;;;5.52;80.80
76229;BME280;65021;53.174;18.160;2023-02-14T09:58:49;103157.14;;;5.61;80.40
76229;BME280;65021;53.174;18.160;2023-02-14T10:01:32;103159.36;;;5.68;80.19
76229;BME280;65021;53.174;18.160;2023-02-14T10:12:39;103163.52;;;5.86;80.04
76229;BME280;65021;53.174;18.160;2023-02-14T10:15:33;103156.73;;;5.91;80.44
76229;BME280;65021;53.174;18.160;2023-02-14T10:18:18;103155.92;;;5.99;80.00
76229;BME280;65021;53.174;18.160;2023-02-14T10:20:52;103151.11;;;6.12;80.28
76229;BME280;65021;53.174;18.160;2023-02-14T10:23:28;103149.26;;;6.17;79.38
76229;BME280;65021;53.174;18.160;2023-02-14T10:26:02;103148.16;;;6.07;78.12
76229;BME280;65021;53.174;18.160;2023-02-14T10:28:49;103143.97;;;6.06;78.83
76229;BME280;65021;53.174;18.160;2023-02-14T10:31:24;103145.27;;;6.05;79.44
76229;BME280;65021;53.174;18.160;2023-02-14T10:36:58;103142.40;;;6.23;79.70
76229;BME280;65021;53.174;18.160;2023-02-14T10:42:28;103141.75;;;6.46;79.21
76229;BME280;65021;53.174;18.160;2023-02-14T10:45:21;103140.28;;;6.48;77.64
76229;BME280;65021;53.174;18.160;2023-02-14T10:50:58;103134.36;;;6.57;77.21
76229;BME280;65021;53.174;18.160;2023-02-14T10:53:50;103132.09;;;6.52;76.81
76229;BME280;65021;53.174;18.160;2023-02-14T10:56:30;103141.30;;;6.35;75.79
76229;BME280;65021;53.174;18.160;2023-02-14T10:59:03;103144.41;;;6.37;77.04
76229;BME280;65021;53.174;18.160;2023-02-14T11:01:33;103138.44;;;6.41;76.66
76229;BME280;65021;53.174;18.160;2023-02-14T11:04:01;103136.75;;;6.47;77.43
76229;BME280;65021;53.174;18.160;2023-02-14T11:06:32;103139.45;;;6.49;77.30
76229;BME280;65021;53.174;18.160;2023-02-14T11:08:59;103143.37;;;6.50;77.66
76229;BME280;65021;53.174;18.160;2023-02-14T11:11:39;103136.35;;;6.55;77.91
76229;BME280;65021;53.174;18.160;2023-02-14T11:16:44;103138.93;;;6.54;76.32
76229;BME280;65021;53.174;18.160;2023-02-14T11:21:44;103134.23;;;6.22;76.55
76229;BME280;65021;53.174;18.160;2023-02-14T11:24:32;103128.04;;;6.23;76.68
76229;BME280;65021;53.174;18.160;2023-02-14T11:29:46;103124.73;;;6.09;76.14
76229;BME280;65021;53.174;18.160;2023-02-14T11:32:21;103124.19;;;6.21;77.00
76229;BME280;65021;53.174;18.160;2023-02-14T11:35:02;103119.01;;;6.38;77.46
76229;BME280;65021;53.174;18.160;2023-02-14T11:37:30;103119.45;;;6.51;76.86
76229;BME280;65021;53.174;18.160;2023-02-14T11:39:59;103115.02;;;6.46;75.72
76229;BME280;65021;53.174;18.160;2023-02-14T11:45:03;103110.11;;;6.61;76.65
76229;BME280;65021;53.174;18.160;2023-02-14T11:47:33;103110.75;;;6.66;76.35
76229;BME280;65021;53.174;18.160;2023-02-14T11:50:03;103115.89;;;6.57;75.32
76229;BME280;65021;53.174;18.160;2023-02-14T11:52:32;103120.39;;;6.55;76.06
76229;BME280;65021;53.174;18.160;2023-02-14T11:55:05;103121.31;;;6.58;76.25
76229;BME280;65021;53.174;18.160;2023-02-14T11:57:36;103128.67;;;6.58;75.77
76229;BME280;65021;53.174;18.160;2023-02-14T12:00:29;103126.05;;;6.59;75.63
76229;BME280;65021;53.174;18.160;2023-02-14T12:02:58;103123.04;;;6.58;75.59
76229;BME280;65021;53.174;18.160;2023-02-14T12:05:30;103125.44;;;6.59;76.24
76229;BME280;65021;53.174;18.160;2023-02-14T12:08:06;103122.05;;;6.64;75.81
76229;BME280;65021;53.174;18.160;2023-02-14T12:10:37;103114.20;;;6.75;76.51
76229;BME280;65021;53.174;18.160;2023-02-14T12:15:39;103108.39;;;6.92;76.25
76229;BME280;65021;53.174;18.160;2023-02-14T12:18:45;103110.47;;;6.95;76.24
76229;BME280;65021;53.174;18.160;2023-02-14T12:21:26;103114.40;;;6.93;74.99
76229;BME280;65021;53.174;18.160;2023-02-14T12:26:49;103100.34;;;6.87;74.93
76229;BME280;65021;53.174;18.160;2023-02-14T12:29:29;103096.48;;;6.76;74.85
76229;BME280;65021;53.174;18.160;2023-02-14T12:32:10;103093.66;;;6.77;75.62
76229;BME280;65021;53.174;18.160;2023-02-14T12:34:38;103098.70;;;6.80;75.33
76229;BME280;65021;53.174;18.160;2023-02-14T12:51:07;103089.73;;;6.66;74.38
76229;BME280;65021;53.174;18.160;2023-02-14T12:53:42;103085.02;;;6.69;74.78
76229;BME280;65021;53.174;18.160;2023-02-14T13:04:43;103082.71;;;6.65;73.69
76229;BME280;65021;53.174;18.160;2023-02-14T13:09:50;103071.20;;;6.65;74.95
76229;BME280;65021;53.174;18.160;2023-02-14T13:16:10;103063.98;;;6.64;74.05
76229;BME280;65021;53.174;18.160;2023-02-14T13:18:48;103071.73;;;6.56;73.92
76229;BME280;65021;53.174;18.160;2023-02-14T13:21:22;103070.08;;;6.56;74.54
76229;BME280;65021;53.174;18.160;2023-02-14T13:23:53;103076.94;;;6.58;74.50
76229;BME280;65021;53.174;18.160;2023-02-14T13:26:29;103075.00;;;6.59;74.30
76229;BME280;65021;53.174;18.160;2023-02-14T13:29:06;103075.42;;;6.60;74.46
76229;BME280;65021;53.174;18.160;2023-02-14T13:31:36;103069.50;;;6.67;74.97
76229;BME280;65021;53.174;18.160;2023-02-14T13:36:38;103060.43;;;6.79;73.93
76229;BME280;65021;53.174;18.160;2023-02-14T13:39:05;103055.76;;;6.77;74.41
76229;BME280;65021;53.174;18.160;2023-02-14T13:41:33;103053.54;;;6.73;74.73
76229;BME280;65021;53.174;18.160;2023-02-14T13:44:00;103051.45;;;6.77;74.62
76229;BME280;65021;53.174;18.160;2023-02-14T13:48:59;103044.77;;;6.78;74.40
76229;BME280;65021;53.174;18.160;2023-02-14T13:56:58;103045.35;;;6.57;73.92
76229;BME280;65021;53.174;18.160;2023-02-14T13:59:31;103043.84;;;6.57;74.69
76229;BME280;65021;53.174;18.160;2023-02-14T14:04:53;103044.14;;;6.48;73.88
76229;BME280;65021;53.174;18.160;2023-02-14T14:07:23;103043.86;;;6.49;74.61
76229;BME280;65021;53.174;18.160;2023-02-14T14:09:54;103039.48;;;6.50;74.48
76229;BME280;65021;53.174;18.160;2023-02-14T14:19:59;103034.61;;;6.48;74.66
76229;BME280;65021;53.174;18.160;2023-02-14T14:22:27;103035.39;;;6.45;74.77
76229;BME280;65021;53.174;18.160;2023-02-14T14:24:59;103028.67;;;6.43;74.75
76229;BME280;65021;53.174;18.160;2023-02-14T14:27:41;103030.17;;;6.41;75.02
76229;BME280;65021;53.174;18.160;2023-02-14T14:30:21;103031.59;;;6.41;75.41
76229;BME280;65021;53.174;18.160;2023-02-14T14:32:49;103027.71;;;6.40;75.01
76229;BME280;65021;53.174;18.160;2023-02-14T14:35:22;103024.88;;;6.39;75.25
76229;BME280;65021;53.174;18.160;2023-02-14T14:37:57;103024.91;;;6.35;75.03
76229;BME280;65021;53.174;18.160;2023-02-14T14:40:26;103028.95;;;6.32;75.13
76229;BME280;65021;53.174;18.160;2023-02-14T14:42:58;103021.84;;;6.31;75.17
76229;BME280;65021;53.174;18.160;2023-02-14T14:45:28;103022.41;;;6.31;75.51
76229;BME280;65021;53.174;18.160;2023-02-14T14:47:58;103017.11;;;6.31;75.62
76229;BME280;65021;53.174;18.160;2023-02-14T14:50:32;103019.77;;;6.30;75.47
76229;BME280;65021;53.174;18.160;2023-02-14T14:53:03;103018.23;;;6.27;75.49
76229;BME280;65021;53.174;18.160;2023-02-14T14:55:34;103024.73;;;6.23;75.64
76229;BME280;65021;53.174;18.160;2023-02-14T14:58:04;103019.30;;;6.17;75.75
76229;BME280;65021;53.174;18.160;2023-02-14T15:00:34;103023.87;;;6.09;75.80
76229;BME280;65021;53.174;18.160;2023-02-14T15:05:45;103031.02;;;5.96;75.87
76229;BME280;65021;53.174;18.160;2023-02-14T15:10:47;103018.98;;;5.75;76.08
76229;BME280;65021;53.174;18.160;2023-02-14T15:13:14;103021.86;;;5.65;76.09
76229;BME280;65021;53.174;18.160;2023-02-14T15:15:59;103027.16;;;5.52;76.11
76229;BME280;65021;53.174;18.160;2023-02-14T15:18:26;103026.48;;;5.39;76.26
76229;BME280;65021;53.174;18.160;2023-02-14T15:20:53;103023.95;;;5.24;76.34